Time;durP1;ratioP1;P1;durP2;ratioP2;P2;SDS_P1;SDS_P2;PMS_P1;PMS_P2;Temp;Humidity;BMP_temperature;BMP_pressure;BME280_temperature;BME280_humidity;BME280_pressure;Samples;Min_cycle;Max_cycle;Signal;HPM_P1;HPM_P2
2022/07/10 00:00:34;;;;;;;2.83;2.67;;;;;;;-143.84;55.70;44990.03;5071690;28;20449;-80
2022/07/10 00:03:01;;;;;;;6.40;2.83;;;;;;;-143.84;55.80;44984.31;5072105;28;20433;-80
2022/07/10 00:05:29;;;;;;;2.87;2.67;;;;;;;-143.84;55.37;45012.88;5071971;28;21024;-80
2022/07/10 00:07:56;;;;;;;4.13;2.60;;;;;;;-143.84;54.92;45068.13;5072050;28;20461;-80
2022/07/10 00:10:26;;;;;;;3.10;2.67;;;;;;;-143.84;54.74;45020.50;5072264;28;20433;-80
2022/07/10 00:12:53;;;;;;;3.60;2.43;;;;;;;-143.84;54.45;45003.38;5071521;28;20445;-79
2022/07/10 00:15:20;;;;;;;7.30;3.13;;;;;;;-143.84;54.60;44984.31;5071514;28;20917;-79
2022/07/10 00:17:48;;;;;;;6.70;2.90;;;;;;;-143.84;54.58;45005.28;5071555;28;20429;-79
2022/07/10 00:20:15;;;;;;;3.93;2.30;;;;;;;-143.84;54.16;45005.28;5071548;28;20440;-78
2022/07/10 00:22:44;;;;;;;2.77;2.57;;;;;;;-143.84;53.90;44997.66;5071309;28;20441;-79
2022/07/10 00:25:14;;;;;;;4.80;2.30;;;;;;;-143.84;54.21;45007.19;5071607;28;20433;-79
2022/07/10 00:27:43;;;;;;;2.20;2.00;;;;;;;-143.84;53.82;45028.13;5071922;28;20502;-80
2022/07/10 00:30:11;;;;;;;2.70;2.50;;;;;;;-143.84;54.31;45003.38;5071540;28;20483;-80
2022/07/10 00:32:38;;;;;;;3.57;1.93;;;;;;;-143.84;54.09;44995.75;5071038;28;20488;-79
2022/07/10 00:35:07;;;;;;;4.10;2.63;;;;;;;-143.84;54.57;45003.38;5071820;28;20503;-79
2022/07/10 00:37:36;;;;;;;4.23;2.50;;;;;;;-143.84;54.72;45016.69;5071414;28;21089;-79
2022/07/10 00:40:05;;;;;;;3.73;2.47;;;;;;;-143.84;55.20;44997.66;5071225;28;20437;-80
2022/07/10 00:42:33;;;;;;;5.03;2.80;;;;;;;-143.84;55.29;45009.09;5071660;28;20520;-80
2022/07/10 00:45:02;;;;;;;2.33;2.13;;;;;;;-143.84;55.49;45003.38;5071132;28;20436;-80
2022/07/10 00:47:29;;;;;;;4.33;2.50;;;;;;;-143.84;55.57;45026.22;5071674;28;20833;-79
2022/07/10 00:49:56;;;;;;;4.70;2.40;;;;;;;-143.84;55.57;45014.78;5071442;28;20998;-80
2022/07/10 00:52:24;;;;;;;2.37;2.17;;;;;;;-143.84;55.83;45022.41;5071337;28;20445;-80
2022/07/10 00:54:52;;;;;;;3.57;2.80;;;;;;;-143.84;55.77;45005.28;5071404;28;20466;-80
2022/07/10 00:57:20;;;;;;;4.40;2.67;;;;;;;-143.84;55.54;45016.69;5071185;28;20432;-80
2022/07/10 00:59:49;;;;;;;2.67;2.47;;;;;;;-143.84;55.53;45026.22;5071264;28;20452;-79
2022/07/10 01:02:18;;;;;;;3.30;2.37;;;;;;;-143.84;55.72;45009.09;5071516;28;20429;-80
2022/07/10 01:04:45;;;;;;;3.90;2.80;;;;;;;-143.84;55.70;45012.88;5071242;28;20448;-79
2022/07/10 01:07:15;;;;;;;4.23;2.60;;;;;;;-143.84;55.96;45026.22;5071681;28;20448;-80
2022/07/10 01:09:44;;;;;;;2.90;2.70;;;;;;;-143.84;56.14;45028.13;5071059;28;20480;-80
2022/07/10 01:12:13;;;;;;;4.97;2.60;;;;;;;-143.84;56.17;45010.97;5071208;28;20437;-80
2022/07/10 01:14:41;;;;;;;5.63;2.97;;;;;;;-143.84;56.13;45022.41;5071228;28;20436;-80
2022/07/10 01:17:10;;;;;;;2.97;2.50;;;;;;;-143.84;56.28;45012.88;5071217;28;20468;-80
2022/07/10 01:19:38;;;;;;;4.33;3.43;;;;;;;-143.84;56.13;45003.38;5071422;28;20421;-80
2022/07/10 01:22:07;;;;;;;4.90;3.00;;;;;;;-143.84;56.31;45009.09;5071045;28;20539;-80
2022/07/10 01:24:34;;;;;;;3.53;3.03;;;;;;;-143.84;56.00;45018.59;5071226;28;20938;-80
2022/07/10 01:27:02;;;;;;;4.37;3.50;;;;;;;-143.84;56.20;45010.97;5071273;28;20429;-80
2022/07/10 01:29:30;;;;;;;9.17;3.97;;;;;;;-143.84;56.16;45028.13;5070694;28;21002;-80
2022/07/10 01:31:59;;;;;;;3.27;3.00;;;;;;;-143.84;56.22;45014.78;5070813;28;20480;-80
2022/07/10 01:34:26;;;;;;;3.37;3.17;;;;;;;-143.84;56.05;45022.41;5071023;28;20437;-80
2022/07/10 01:36:54;;;;;;;3.87;3.50;;;;;;;-143.84;56.63;44999.56;5070891;28;20927;-79
2022/07/10 01:39:22;;;;;;;5.43;3.43;;;;;;;-143.84;56.94;45009.09;5070924;28;20436;-79
2022/07/10 01:41:49;;;;;;;8.73;3.50;;;;;;;-143.84;57.63;45030.03;5070915;28;21013;-80
2022/07/10 01:44:17;;;;;;;3.00;2.90;;;;;;;-143.84;58.37;45007.19;5070634;28;20509;-80
2022/07/10 01:46:46;;;;;;;3.67;3.37;;;;;;;-143.84;58.95;45003.38;5070827;28;20425;-80
2022/07/10 01:49:14;;;;;;;3.13;2.90;;;;;;;-143.84;59.78;45020.50;5070852;28;20542;-79
2022/07/10 01:51:42;;;;;;;3.60;3.30;;;;;;;-143.84;60.42;45030.03;5070916;28;20523;-80
2022/07/10 01:54:09;;;;;;;4.30;3.80;;;;;;;-143.84;60.86;45016.69;5070963;28;20556;-80
2022/07/10 01:56:38;;;;;;;3.77;3.50;;;;;;;-143.84;61.23;45010.97;5071720;28;20444;-80
2022/07/10 01:59:06;;;;;;;3.40;3.13;;;;;;;-143.84;61.66;45014.78;5074882;28;20510;-80
2022/07/10 02:01:33;;;;;;;3.93;3.53;;;;;;;-143.84;62.03;45003.38;5074405;28;20494;-79
2022/07/10 02:06:45;;;;;;;4.00;3.43;;;;;;;-143.84;62.22;45007.19;5074221;28;20514;-81
2022/07/10 02:09:12;;;;;;;6.93;3.50;;;;;;;-143.84;62.22;45014.78;5073884;28;20529;-80
2022/07/10 02:11:41;;;;;;;3.27;3.10;;;;;;;-143.84;62.69;45007.19;5073870;28;20498;-80
2022/07/10 02:14:09;;;;;;;3.80;3.60;;;;;;;-143.84;63.13;45028.13;5071590;28;20449;-80
2022/07/10 02:16:37;;;;;;;5.70;3.90;;;;;;;-143.84;63.05;45012.88;5070795;28;20452;-79
2022/07/10 02:19:05;;;;;;;3.67;3.37;;;;;;;-143.84;63.28;45026.22;5073981;28;20443;-80
2022/07/10 02:21:32;;;;;;;4.03;3.47;;;;;;;-143.84;63.36;45022.41;5074026;28;20931;-80
2022/07/10 02:23:59;;;;;;;4.70;3.93;;;;;;;-143.84;63.16;45022.41;5074173;28;20938;-80
2022/07/10 02:26:26;;;;;;;5.33;3.77;;;;;;;-143.84;62.98;45010.97;5074078;28;20494;-80
2022/07/10 02:28:55;;;;;;;3.37;3.03;;;;;;;-143.84;62.65;45077.63;5073760;28;20529;-80
2022/07/10 02:31:22;;;;;;;5.00;3.57;;;;;;;-143.84;62.19;45020.50;5073628;28;20488;-79
2022/07/10 02:33:49;;;;;;;5.77;3.10;;;;;;;-143.84;62.30;45016.69;5074011;28;20494;-80
2022/07/10 02:36:16;;;;;;;5.00;3.50;;;;;;;-143.84;61.89;45001.47;5073330;28;20943;-80
2022/07/10 02:38:44;;;;;;;3.47;3.00;;;;;;;-143.84;61.40;45026.22;5073766;28;20467;-80
2022/07/10 02:41:11;;;;;;;9.43;3.63;;;;;;;-143.84;60.83;45031.94;5073810;28;20846;-80
2022/07/10 02:43:38;;;;;;;6.40;3.50;;;;;;;-143.84;60.38;45033.84;5073398;28;20437;-80
2022/07/10 02:46:07;;;;;;;4.27;3.67;;;;;;;-143.84;60.07;45022.41;5073352;28;20494;-79
2022/07/10 02:48:34;;;;;;;12.30;3.30;;;;;;;-143.84;59.75;45012.88;5073320;28;20985;-77
2022/07/10 02:51:01;;;;;;;3.80;3.50;;;;;;;-143.84;59.61;45001.47;5072947;28;20546;-77
2022/07/10 02:53:28;;;;;;;3.93;3.63;;;;;;;-143.84;59.10;45022.41;5072914;28;20437;-77
2022/07/10 02:55:55;;;;;;;3.30;3.00;;;;;;;-143.84;59.01;45024.31;5072978;28;20502;-78
2022/07/10 02:58:22;;;;;;;4.47;3.37;;;;;;;-143.84;58.87;45012.88;5072928;28;20820;-78
2022/07/10 03:00:49;;;;;;;3.50;3.10;;;;;;;-143.84;58.86;45007.19;5073025;28;20486;-78
2022/07/10 03:03:18;;;;;;;7.80;3.50;;;;;;;-143.84;58.33;45039.53;5072580;28;20437;-78
2022/07/10 03:05:45;;;;;;;4.67;3.03;;;;;;;-143.84;58.10;45014.78;5072332;28;20445;-77
2022/07/10 03:08:13;;;;;;;6.23;3.90;;;;;;;-143.84;58.47;45030.03;5072161;28;20566;-77
2022/07/10 03:10:40;;;;;;;4.10;3.70;;;;;;;-143.84;58.10;45007.19;5072144;28;20484;-77
2022/07/10 03:13:08;;;;;;;8.43;3.40;;;;;;;-143.84;58.11;45026.22;5072578;28;20463;-77
2022/07/10 03:15:35;;;;;;;4.50;3.50;;;;;;;-143.84;58.50;45003.38;5072179;28;20969;-78
2022/07/10 03:18:03;;;;;;;6.13;3.00;;;;;;;-143.84;58.29;44993.84;5072895;28;20441;-77
2022/07/10 03:20:32;;;;;;;6.00;3.43;;;;;;;-143.84;58.33;45077.63;5074329;28;20532;-77
2022/07/10 03:22:59;;;;;;;5.77;3.80;;;;;;;-143.84;57.98;45022.41;5092301;28;20440;-77
2022/07/10 03:25:26;;;;;;;3.30;3.10;;;;;;;-143.84;58.22;45039.53;5092529;28;20953;-77
2022/07/10 03:27:53;;;;;;;4.37;2.97;;;;;;;-143.84;58.67;45016.69;5091565;28;20440;-76
2022/07/10 03:30:20;;;;;;;3.40;3.20;;;;;;;-143.84;58.76;45003.38;5091803;28;20476;-77
2022/07/10 03:32:48;;;;;;;15.17;3.90;;;;;;;-143.84;58.79;45016.69;5091972;28;20481;-77
2022/07/10 03:35:15;;;;;;;6.13;3.60;;;;;;;-143.84;59.04;45030.03;5091920;28;20477;-77
2022/07/10 03:37:43;;;;;;;4.00;3.70;;;;;;;-143.84;59.20;45007.19;5091683;28;20436;-77
2022/07/10 03:40:11;;;;;;;4.83;3.60;;;;;;;-143.84;59.14;45018.59;5092070;28;20527;-77
2022/07/10 03:42:39;;;;;;;7.80;4.23;;;;;;;-143.84;59.23;44991.94;5073831;28;20820;-77
2022/07/10 03:45:07;;;;;;;3.90;3.60;;;;;;;-143.84;59.08;45030.03;5091737;28;20428;-77
2022/07/10 03:47:34;;;;;;;4.00;3.63;;;;;;;-143.84;59.15;45031.94;5091807;28;20436;-77
2022/07/10 03:50:02;;;;;;;4.53;3.20;;;;;;;-143.84;59.03;44999.56;5091491;28;20484;-77
2022/07/10 03:52:29;;;;;;;5.77;2.80;;;;;;;-143.84;59.01;44995.75;5091368;28;21242;-77
2022/07/10 03:54:57;;;;;;;5.60;3.27;;;;;;;-143.84;58.81;45028.13;5091350;28;20451;-77
2022/07/10 04:00:11;;;;;;;7.40;3.77;;;;;;;-143.84;58.04;45018.59;5091359;28;20577;-77
2022/07/10 04:02:39;;;;;;;3.87;3.57;;;;;;;-143.84;57.84;45001.47;5091699;28;21145;-77
2022/07/10 04:05:07;;;;;;;4.17;3.77;;;;;;;-143.84;57.22;45031.94;5091954;28;20440;-77
2022/07/10 04:07:34;;;;;;;4.57;3.33;;;;;;;-143.84;57.05;45026.22;5091582;28;20442;-77
2022/07/10 04:10:04;;;;;;;5.57;3.33;;;;;;;-143.84;57.08;45024.31;5091646;28;21042;-77
2022/07/10 04:12:31;;;;;;;7.27;3.27;;;;;;;-143.84;56.66;45014.78;5091856;28;20497;-77
2022/07/10 04:14:58;;;;;;;4.37;3.40;;;;;;;-143.84;56.29;45041.44;5091959;28;20934;-77
2022/07/10 04:17:25;;;;;;;3.50;3.20;;;;;;;-143.84;56.20;45022.41;5091664;28;20440;-77
2022/07/10 04:19:53;;;;;;;11.27;3.53;;;;;;;-143.84;55.12;44993.84;5091225;28;21013;-77
2022/07/10 04:22:20;;;;;;;5.87;3.00;;;;;;;-143.84;55.04;45001.47;5091624;28;20518;-78
2022/07/10 04:24:47;;;;;;;3.30;3.10;;;;;;;-143.84;54.66;45016.69;5091758;28;20420;-78
2022/07/10 04:27:16;;;;;;;10.13;3.13;;;;;;;-143.84;53.47;45016.69;5091784;28;20500;-78
2022/07/10 04:29:44;;;;;;;3.93;2.50;;;;;;;-143.84;52.70;44999.56;5091621;28;20574;-77
2022/07/10 04:32:11;;;;;;;5.13;3.00;;;;;;;-143.84;52.19;45016.69;5091500;28;20514;-78
2022/07/10 04:34:38;;;;;;;3.83;3.07;;;;;;;-143.84;51.25;45005.28;5091456;28;21286;-78
2022/07/10 04:37:07;;;;;;;5.67;2.70;;;;;;;-143.84;50.49;45010.97;5091759;28;20914;-78
2022/07/10 04:39:34;;;;;;;3.33;3.00;;;;;;;-143.84;50.45;44997.66;5091283;28;20446;-79
2022/07/10 04:42:01;;;;;;;4.07;3.17;;;;;;;-143.84;49.43;45018.59;5090966;28;20493;-78
2022/07/10 04:44:30;;;;;;;10.63;3.33;;;;;;;-143.84;48.43;44999.56;5090967;28;20428;-77
2022/07/10 04:46:58;;;;;;;4.40;2.60;;;;;;;-143.84;46.97;44991.94;5090949;28;20436;-77
2022/07/10 04:49:26;;;;;;;3.37;2.43;;;;;;;-143.84;46.58;45003.38;5090759;28;21000;-78
2022/07/10 04:51:54;;;;;;;8.37;2.53;;;;;;;-143.84;44.49;44999.56;5091004;28;20515;-78
2022/07/10 04:54:21;;;;;;;4.70;2.50;;;;;;;-143.84;43.30;44999.56;5091193;28;20436;-79
2022/07/10 04:56:48;;;;;;;8.23;2.70;;;;;;;-143.84;42.51;44997.66;5091025;28;20443;-77
2022/07/10 04:59:15;;;;;;;6.90;2.87;;;;;;;-143.84;42.00;44988.13;5091393;28;20800;-79
2022/07/10 05:01:44;;;;;;;3.30;2.70;;;;;;;-143.84;41.96;44976.72;5091066;28;20945;-77
2022/07/10 05:04:11;;;;;;;2.60;2.13;;;;;;;-143.84;41.68;44991.94;5091062;28;20489;-78
2022/07/10 05:06:38;;;;;;;4.30;2.53;;;;;;;-143.84;40.77;44976.72;5090837;28;20501;-78
2022/07/10 05:09:05;;;;;;;6.57;3.17;;;;;;;-143.84;40.06;44990.03;5091687;28;20458;-78
2022/07/10 05:11:32;;;;;;;2.80;2.60;;;;;;;-143.84;39.97;44976.72;5091274;28;20463;-78
2022/07/10 05:14:00;;;;;;;6.63;2.43;;;;;;;-143.84;39.83;44957.66;5091303;28;20432;-78
2022/07/10 05:16:27;;;;;;;3.87;2.30;;;;;;;-143.84;39.35;44965.28;5090985;28;20436;-78
2022/07/10 05:18:55;;;;;;;4.60;1.97;;;;;;;-143.84;38.94;44980.53;5090994;28;20465;-79
2022/07/10 05:21:22;;;;;;;3.03;2.40;;;;;;;-143.84;39.32;44950.06;5091007;28;20459;-78
2022/07/10 05:23:50;;;;;;;3.10;2.27;;;;;;;-143.84;38.78;44961.47;5090233;28;20439;-78
2022/07/10 05:26:17;;;;;;;6.00;2.70;;;;;;;-143.84;38.81;44967.19;5090598;28;21089;-78
2022/07/10 05:28:44;;;;;;;9.90;2.27;;;;;;;-143.84;38.95;44942.44;5090547;28;20447;-78
2022/07/10 05:31:11;;;;;;;4.27;3.07;;;;;;;-143.84;38.72;44951.97;5092044;28;20494;-80
2022/07/10 05:33:40;;;;;;;3.30;2.53;;;;;;;-143.84;37.61;44946.25;5094676;28;20432;-79
2022/07/10 05:36:09;;;;;;;2.87;2.67;;;;;;;-143.84;37.18;44898.66;5094058;28;20436;-79
2022/07/10 05:38:36;;;;;;;4.77;3.00;;;;;;;-143.84;37.16;44953.88;5094213;28;20447;-80
2022/07/10 05:41:04;;;;;;;4.57;2.30;;;;;;;-143.84;36.50;44940.53;5093701;28;20914;-79
2022/07/10 05:43:31;;;;;;;7.80;2.27;;;;;;;-143.84;36.50;44932.91;5094108;28;20961;-80
2022/07/10 05:45:58;;;;;;;7.43;2.80;;;;;;;-143.84;36.35;44913.88;5094364;28;20521;-80
2022/07/10 05:48:25;;;;;;;2.70;2.20;;;;;;;-143.84;36.11;44950.06;5093836;28;20479;-79
2022/07/10 05:50:53;;;;;;;6.87;2.53;;;;;;;-143.84;36.02;44902.44;5093961;28;20483;-79
2022/07/10 05:53:22;;;;;;;5.47;2.63;;;;;;;-143.84;36.23;44919.59;5093729;28;20447;-79
2022/07/10 05:55:49;;;;;;;2.47;2.27;;;;;;;-143.84;35.29;44940.53;5094320;28;20463;-80
2022/07/10 05:58:16;;;;;;;3.47;2.30;;;;;;;-143.84;35.27;44919.59;5093573;28;20834;-79
2022/07/10 06:00:45;;;;;;;2.27;2.17;;;;;;;-143.84;35.36;44915.78;5093638;28;20504;-79
2022/07/10 06:03:13;;;;;;;2.60;2.40;;;;;;;-143.84;35.69;44896.75;5075889;28;20436;-80
2022/07/10 06:05:40;;;;;;;6.43;2.60;;;;;;;-143.84;35.08;44885.31;5093323;28;21257;-80
2022/07/10 06:08:07;;;;;;;3.53;3.23;;;;;;;-143.84;34.75;44900.53;5093710;28;20435;-80
2022/07/10 06:10:36;;;;;;;3.40;2.90;;;;;;;-143.84;34.83;44873.88;5093621;28;20467;-79
2022/07/10 06:13:03;;;;;;;4.23;2.60;;;;;;;-143.84;35.45;44911.97;5093354;28;20492;-79
2022/07/10 06:15:30;;;;;;;3.17;2.23;;;;;;;-143.84;35.70;44892.94;5093510;28;20812;-79
2022/07/10 06:17:59;;;;;;;3.03;2.73;;;;;;;-143.84;35.31;44902.44;5093375;28;20481;-80
2022/07/10 06:20:26;;;;;;;2.97;2.43;;;;;;;-143.84;35.30;44896.75;5093088;28;20526;-80
2022/07/10 06:22:53;;;;;;;3.73;2.30;;;;;;;-143.84;35.13;44894.84;5093126;28;20440;-79
2022/07/10 06:25:21;;;;;;;3.83;2.47;;;;;;;-143.84;35.03;44892.94;5092898;28;20447;-79
2022/07/10 06:27:50;;;;;;;6.53;3.27;;;;;;;-143.84;35.11;44864.38;5092567;28;21038;-79
2022/07/10 06:30:17;;;;;;;3.20;2.20;;;;;;;-143.84;34.09;44877.69;5092551;28;20887;-79
2022/07/10 06:32:45;;;;;;;2.60;2.40;;;;;;;-143.84;34.22;44908.16;5092319;28;20479;-79
2022/07/10 06:35:12;;;;;;;3.50;2.73;;;;;;;-143.84;34.03;44887.22;5091007;28;20519;-79
2022/07/10 06:37:39;;;;;;;3.30;2.30;;;;;;;-143.84;33.88;44908.16;5090868;28;20440;-79
2022/07/10 06:40:08;;;;;;;2.37;2.17;;;;;;;-143.84;34.17;44887.22;5092033;28;21011;-79
2022/07/10 06:42:35;;;;;;;3.60;2.80;;;;;;;-143.84;34.82;44904.34;5092157;28;20447;-79
2022/07/10 06:45:04;;;;;;;10.00;2.67;;;;;;;-143.84;34.89;44896.75;5092952;28;20478;-79
2022/07/10 06:50:15;;;;;;;14.53;3.37;;;;;;;-143.84;34.82;44921.50;5092596;28;20909;-80
2022/07/10 06:52:42;;;;;;;16.70;3.60;;;;;;;-143.84;35.17;44894.84;5092162;28;20436;-80
2022/07/10 06:55:10;;;;;;;8.30;2.73;;;;;;;-143.84;35.31;44887.22;5092478;28;20448;-79
2022/07/10 06:57:39;;;;;;;6.10;2.10;;;;;;;-143.84;34.38;44889.13;5092623;28;20437;-79
2022/07/10 07:00:11;;;;;;;7.37;3.20;;;;;;;-143.84;34.83;44892.94;5092097;28;20466;-79
2022/07/10 07:02:39;;;;;;;2.60;2.40;;;;;;;-143.84;35.02;44898.66;5092183;28;20451;-79
2022/07/10 07:05:07;;;;;;;2.90;2.50;;;;;;;-143.84;34.39;44904.34;5092346;28;20469;-79
2022/07/10 07:07:35;;;;;;;2.30;2.10;;;;;;;-143.84;35.12;44892.94;5092187;28;20438;-79
2022/07/10 07:10:02;;;;;;;6.90;2.50;;;;;;;-143.84;35.14;44896.75;5092002;28;20777;-79
2022/07/10 07:12:30;;;;;;;4.43;1.90;;;;;;;-143.84;34.44;44870.09;5091704;28;20451;-79
2022/07/10 07:14:57;;;;;;;3.90;2.40;;;;;;;-143.84;33.83;44866.28;5092093;28;20440;-79
2022/07/10 07:17:33;;;;;;;2.60;2.40;;;;;;;-143.84;34.11;44889.13;5092095;28;20440;-80
2022/07/10 07:25:29;;;;;;;2.50;2.30;;;;;;;-143.84;33.66;44898.66;5091961;28;20427;-80
2022/07/10 07:27:56;;;;;;;2.20;2.00;;;;;;;-143.84;33.54;44896.75;5091898;28;20451;-80
2022/07/10 07:30:24;;;;;;;5.20;2.50;;;;;;;-143.84;33.38;44894.84;5091812;28;21054;-79
2022/07/10 07:32:52;;;;;;;3.10;2.10;;;;;;;-143.84;33.37;44870.09;5091722;28;20531;-79
2022/07/10 07:35:20;;;;;;;2.53;2.07;;;;;;;-143.84;33.12;44875.78;5091616;28;20444;-79
2022/07/10 07:37:48;;;;;;;5.90;1.97;;;;;;;-143.84;33.71;44883.41;5091682;28;20440;-79
2022/07/10 07:40:19;;;;;;;2.13;2.03;;;;;;;-143.84;32.97;44885.31;5091643;28;20443;-79
2022/07/10 07:42:46;;;;;;;7.23;2.00;;;;;;;-143.84;33.39;44877.69;5091849;28;20531;-79
2022/07/10 07:45:14;;;;;;;2.93;2.00;;;;;;;-143.84;32.96;44879.59;5091605;28;20444;-79
2022/07/10 07:47:46;;;;;;;2.37;2.27;;;;;;;-143.84;33.28;44870.09;5091613;28;20439;-79
2022/07/10 07:50:16;;;;;;;4.23;2.17;;;;;;;-143.84;32.60;44883.41;5091100;28;20533;-79
2022/07/10 07:52:44;;;;;;;2.77;2.50;;;;;;;-143.84;32.97;44873.88;5091829;28;20451;-80
2022/07/10 07:55:11;;;;;;;2.30;2.10;;;;;;;-143.84;33.46;44908.16;5090731;28;20449;-79
2022/07/10 07:57:39;;;;;;;6.50;2.20;;;;;;;-143.84;33.24;44896.75;5091650;28;20926;-80
2022/07/10 08:00:08;;;;;;;2.47;1.80;;;;;;;-143.84;33.40;44851.03;5092269;28;20941;-80
2022/07/10 08:02:36;;;;;;;2.97;2.30;;;;;;;-143.84;33.42;44891.03;5091979;28;20534;-80
2022/07/10 08:05:04;;;;;;;4.17;2.27;;;;;;;-143.84;33.80;44868.19;5091675;28;20440;-80
2022/07/10 08:07:37;;;;;;;13.33;2.30;;;;;;;-143.84;33.22;44883.41;5091549;28;20436;-80
2022/07/10 08:10:05;;;;;;;2.30;2.10;;;;;;;-143.84;32.94;44868.19;5091534;28;20444;-80
2022/07/10 08:12:33;;;;;;;2.73;2.47;;;;;;;-143.84;33.31;44911.97;5091633;28;20428;-80
2022/07/10 08:15:00;;;;;;;2.30;2.10;;;;;;;-143.84;33.99;44854.84;5091528;28;20957;-80
2022/07/10 08:17:27;;;;;;;6.30;2.90;;;;;;;-143.84;33.99;44889.13;5091361;28;20440;-80
2022/07/10 08:19:54;;;;;;;4.17;2.27;;;;;;;-143.84;34.45;44862.47;5091421;28;20444;-80
2022/07/10 08:22:21;;;;;;;2.20;2.00;;;;;;;-143.84;34.02;44864.38;5091274;28;20439;-80
2022/07/10 08:24:50;;;;;;;4.73;2.40;;;;;;;-143.84;33.68;44854.84;5091527;28;20444;-80
2022/07/10 08:27:17;;;;;;;4.30;2.47;;;;;;;-143.84;33.96;44896.75;5091045;28;20814;-80
2022/07/10 08:29:44;;;;;;;2.57;2.10;;;;;;;-143.84;33.98;44881.50;5091535;28;20455;-80
2022/07/10 08:32:12;;;;;;;3.10;2.20;;;;;;;-143.84;33.74;44860.56;5091061;28;20487;-80
2022/07/10 08:34:39;;;;;;;2.37;2.17;;;;;;;-143.84;33.88;44885.31;5090983;28;20932;-80
2022/07/10 08:37:06;;;;;;;7.30;2.30;;;;;;;-143.84;34.61;44849.13;5091119;28;20443;-80
2022/07/10 08:39:34;;;;;;;4.90;2.37;;;;;;;-143.84;35.12;44887.22;5091151;28;20961;-80
2022/07/10 08:42:05;;;;;;;6.40;2.23;;;;;;;-143.84;33.38;44866.28;5091075;28;20501;-80
2022/07/10 08:44:32;;;;;;;2.40;2.00;;;;;;;-143.84;34.55;44862.47;5091375;28;20992;-80
2022/07/10 08:47:00;;;;;;;7.33;2.40;;;;;;;-143.84;34.86;44837.72;5090962;28;20440;-80
2022/07/10 08:49:30;;;;;;;2.80;1.93;;;;;;;-143.84;33.66;44866.28;5091163;28;20448;-80
2022/07/10 08:52:00;;;;;;;4.83;2.10;;;;;;;-143.84;34.56;44881.50;5090966;28;20565;-80
2022/07/10 08:54:30;;;;;;;3.20;2.00;;;;;;;-143.84;34.05;44837.72;5073876;28;20499;-80
2022/07/10 08:56:58;;;;;;;4.17;2.50;;;;;;;-143.84;34.47;44881.50;5091200;28;20937;-80
2022/07/10 08:59:27;;;;;;;1.83;1.73;;;;;;;-143.84;34.09;44875.78;5091334;28;20547;-81
2022/07/10 09:01:54;;;;;;;1.60;1.50;;;;;;;-143.84;33.93;44873.88;5091279;28;20424;-80
2022/07/10 09:04:23;;;;;;;2.30;2.07;;;;;;;-143.84;33.82;44879.59;5091156;28;20478;-80
2022/07/10 09:06:52;;;;;;;2.43;2.23;;;;;;;-143.84;34.55;44856.75;5093987;28;20428;-80
2022/07/10 09:09:20;;;;;;;4.20;2.27;;;;;;;-143.84;33.83;44877.69;5095339;28;20431;-80
2022/07/10 09:11:47;;;;;;;2.23;1.80;;;;;;;-143.84;35.03;44870.09;5095058;28;20479;-78
2022/07/10 09:14:16;;;;;;;3.40;2.00;;;;;;;-143.84;34.82;44852.94;5093639;28;20989;-76
2022/07/10 09:16:46;;;;;;;4.53;2.50;;;;;;;-143.84;35.88;44847.22;5092774;28;20957;-75
2022/07/10 09:19:18;;;;;;;5.23;2.33;;;;;;;-143.84;34.88;44839.63;5092796;28;20443;-76
2022/07/10 09:21:46;;;;;;;4.90;2.10;;;;;;;-143.84;33.46;44843.44;5092719;28;20983;-75
2022/07/10 09:24:14;;;;;;;4.23;2.43;;;;;;;-143.84;33.21;44866.28;5092657;28;20451;-76
2022/07/10 09:26:42;;;;;;;3.40;1.87;;;;;;;-143.84;33.55;44879.59;5092505;28;20459;-76
2022/07/10 09:29:11;;;;;;;9.70;2.00;;;;;;;-143.84;33.80;44866.28;5093221;28;20431;-76
2022/07/10 09:31:53;;;;;;;2.20;2.00;;;;;;;-143.84;33.05;44860.56;5092498;28;20488;-76
2022/07/10 09:34:36;;;;;;;3.90;1.97;;;;;;;-143.84;33.06;44868.19;5092934;28;21119;-76
2022/07/10 09:37:19;;;;;;;8.90;2.50;;;;;;;-143.84;33.35;44839.63;5092353;28;20443;-76
2022/07/10 09:40:00;;;;;;;5.93;2.03;;;;;;;-143.84;34.10;44849.13;5089581;28;20530;-75
2022/07/10 09:42:32;;;;;;;2.47;1.87;;;;;;;-143.84;33.97;44873.88;5092371;28;20432;-76
2022/07/10 09:45:16;;;;;;;2.13;1.93;;;;;;;-143.84;33.22;44887.22;5092128;28;20442;-76
2022/07/10 09:47:47;;;;;;;4.50;1.90;;;;;;;-143.84;32.41;44877.69;5092576;28;20539;-76
2022/07/10 09:50:23;;;;;;;2.67;2.47;;;;;;;-143.84;33.03;44879.59;5092239;28;20443;-76
2022/07/10 09:52:53;;;;;;;12.83;1.83;;;;;;;-143.84;32.43;44866.28;5092308;28;20505;-75
2022/07/10 09:55:21;;;;;;;2.17;2.07;;;;;;;-143.84;32.29;44841.53;5092070;28;21032;-75
2022/07/10 09:57:56;;;;;;;3.20;1.77;;;;;;;-143.84;33.12;44868.19;5092010;28;20476;-76
2022/07/10 10:00:26;;;;;;;4.50;2.33;;;;;;;-143.84;33.63;44860.56;5092140;28;20446;-76
2022/07/10 10:02:58;;;;;;;6.23;1.83;;;;;;;-143.84;33.37;44851.03;5092092;28;20998;-75
2022/07/10 10:05:34;;;;;;;4.13;1.97;;;;;;;-143.84;32.77;44866.28;5092208;28;20450;-76
2022/07/10 10:08:06;;;;;;;4.30;1.77;;;;;;;-143.84;32.00;44868.19;5092136;28;20562;-76
2022/07/10 10:10:36;;;;;;;4.03;1.80;;;;;;;-143.84;31.09;44849.13;5091788;28;20493;-76
2022/07/10 10:13:08;;;;;;;2.00;1.80;;;;;;;-143.84;31.69;44858.66;5091729;28;20513;-76
2022/07/10 10:15:37;;;;;;;2.27;1.97;;;;;;;-143.84;32.23;44854.84;5091918;28;20504;-76
2022/07/10 10:18:07;;;;;;;1.50;1.40;;;;;;;-143.84;32.76;44822.47;5090664;28;20535;-76
2022/07/10 10:20:37;;;;;;;6.20;1.90;;;;;;;-143.84;33.01;44860.56;5091710;28;20456;-76
2022/07/10 10:23:05;;;;;;;4.50;2.03;;;;;;;-143.84;33.42;44845.31;5091823;28;20444;-76
2022/07/10 10:25:35;;;;;;;2.10;1.90;;;;;;;-143.84;33.43;44862.47;5091653;28;20493;-76
2022/07/10 10:28:06;;;;;;;3.73;1.60;;;;;;;-143.84;33.08;44851.03;5091541;28;20957;-76
2022/07/10 10:30:37;;;;;;;3.43;2.10;;;;;;;-143.84;32.11;44847.22;5091181;28;20961;-76
2022/07/10 10:33:05;;;;;;;3.40;2.00;;;;;;;-143.84;32.63;44835.81;5091431;28;20874;-76
2022/07/10 10:35:51;;;;;;;4.07;1.77;;;;;;;-143.84;32.09;44851.03;5091393;28;20501;-76
2022/07/10 10:38:18;;;;;;;1.83;1.67;;;;;;;-143.84;31.84;44828.19;5091519;28;21063;-76
2022/07/10 10:40:47;;;;;;;4.77;2.00;;;;;;;-143.84;32.29;44843.44;5091332;28;20971;-76
2022/07/10 10:43:19;;;;;;;1.60;1.50;;;;;;;-143.84;32.20;44837.72;5091127;28;20451;-76
2022/07/10 10:45:47;;;;;;;2.40;1.57;;;;;;;-143.84;31.80;44830.09;5091196;28;20516;-76
2022/07/10 10:48:17;;;;;;;3.87;1.90;;;;;;;-143.84;32.28;44871.97;5091140;28;20443;-76
2022/07/10 10:50:48;;;;;;;2.63;1.50;;;;;;;-143.84;31.62;44854.84;5091295;28;20459;-76
2022/07/10 10:53:17;;;;;;;2.13;1.47;;;;;;;-143.84;30.58;44839.63;5090896;28;20476;-75
2022/07/10 10:56:23;;;;;;;3.03;2.30;;;;;;;-143.84;32.64;44858.66;5091042;28;20447;-76
2022/07/10 10:58:50;;;;;;;2.80;1.90;;;;;;;-143.84;30.70;44851.03;5090714;28;20462;-75
2022/07/10 11:01:39;;;;;;;2.80;2.00;;;;;;;-143.84;31.01;44860.56;5090573;28;20432;-76
2022/07/10 11:04:17;;;;;;;2.60;2.40;;;;;;;-143.84;31.52;44797.72;5065633;28;20452;-76
2022/07/10 11:06:46;;;;;;;1.90;1.80;;;;;;;-143.84;32.14;44866.28;5070314;28;20480;-74
2022/07/10 11:09:24;;;;;;;5.90;1.40;;;;;;;-143.84;31.55;44870.09;5070348;28;20506;-75
2022/07/10 11:12:02;;;;;;;1.90;1.80;;;;;;;-143.84;31.76;44854.84;5070113;28;20559;-76
2022/07/10 11:14:30;;;;;;;2.03;1.70;;;;;;;-143.84;33.00;44854.84;5070724;28;20498;-76
2022/07/10 11:16:57;;;;;;;3.57;2.00;;;;;;;-143.84;32.51;44832.00;5070322;28;20445;-76
2022/07/10 11:19:27;;;;;;;3.73;1.90;;;;;;;-143.84;32.11;44824.38;5070341;28;20494;-76
2022/07/10 11:22:44;;;;;;;1.67;1.57;;;;;;;-143.84;31.38;44849.13;5070268;28;20437;-76
2022/07/10 11:25:30;;;;;;;2.20;1.67;;;;;;;-143.84;31.26;44845.31;5070197;28;20445;-76
2022/07/10 11:28:08;;;;;;;3.83;1.50;;;;;;;-143.84;31.81;44849.13;5070026;28;20468;-76
2022/07/10 11:30:46;;;;;;;4.57;1.47;;;;;;;-143.84;31.66;44839.63;5070409;28;20424;-76
2022/07/10 11:33:13;;;;;;;4.17;1.97;;;;;;;-143.84;31.41;44862.47;5069968;28;20542;-75
2022/07/10 11:35:45;;;;;;;1.93;1.73;;;;;;;-143.84;32.19;44843.44;5069877;28;20798;-75
2022/07/10 11:38:12;;;;;;;1.53;1.40;;;;;;;-143.84;32.46;44851.03;5070301;28;20939;-75